Time;durP1;ratioP1;P1;durP2;ratioP2;P2;SDS_P1;SDS_P2;PMS_P1;PMS_P2;Temp;Humidity;BMP_temperature;BMP_pressure;BME280_temperature;BME280_humidity;BME280_pressure;Samples;Min_cycle;Max_cycle;Signal;HPM_P1;HPM_P2
2022/05/31 00:01:02;;;;;;;10.50;7.03;;;15.00;28.50;;;;;;5013374;28;20423;-75
2022/05/31 00:03:27;;;;;;;14.10;7.20;;;15.00;28.80;;;;;;5022019;28;20448;-75
2022/05/31 00:05:53;;;;;;;12.90;7.50;;;15.10;28.90;;;;;;5025719;28;20477;-75
2022/05/31 00:08:19;;;;;;;12.43;7.40;;;15.00;29.00;;;;;;5033970;28;20557;-75
2022/05/31 00:10:45;;;;;;;19.17;7.50;;;15.00;28.20;;;;;;5020285;28;20202;-76
2022/05/31 00:13:11;;;;;;;10.70;7.37;;;14.20;29.40;;;;;;5026237;28;20425;-76
2022/05/31 00:15:36;;;;;;;14.03;7.00;;;14.50;29.10;;;;;;5033356;28;20286;-74
2022/05/31 00:18:03;;;;;;;11.80;7.40;;;14.80;29.50;;;;;;5025902;28;20188;-76
2022/05/31 00:20:28;;;;;;;10.17;6.67;;;14.90;29.40;;;;;;5021702;28;20269;-74
2022/05/31 00:22:54;;;;;;;11.20;7.10;;;15.10;28.80;;;;;;5030565;28;20852;-74
2022/05/31 00:25:20;;;;;;;12.33;7.30;;;14.90;28.50;;;;;;5034123;28;20191;-74
2022/05/31 00:27:46;;;;;;;11.13;7.43;;;14.90;29.40;;;;;;5034746;28;22454;-74
2022/05/31 00:30:13;;;;;;;14.83;8.60;;;14.90;29.30;;;;;;5025589;28;20494;-74
2022/05/31 00:32:44;;;;;;;19.53;8.27;;;14.90;29.70;;;;;;5028063;28;20958;-75
2022/05/31 00:35:20;;;;;;;15.40;8.43;;;14.90;29.40;;;;;;5028578;28;20469;-75
2022/05/31 00:37:46;;;;;;;14.13;8.60;;;14.90;29.40;;;;;;5021567;28;20447;-75
2022/05/31 00:40:16;;;;;;;11.27;8.47;;;14.80;29.20;;;;;;5023993;28;20792;-75
2022/05/31 00:42:53;;;;;;;11.00;8.03;;;14.80;30.30;;;;;;5027739;28;20583;-75
2022/05/31 00:45:20;;;;;;;13.53;8.80;;;15.00;29.60;;;;;;5029466;28;20783;-75
2022/05/31 00:47:46;;;;;;;15.07;8.90;;;15.00;30.00;;;;;;5022708;28;20444;-75
2022/05/31 00:50:36;;;;;;;10.73;8.10;;;14.90;29.60;;;;;;5024218;28;20929;-75
2022/05/31 00:53:09;;;;;;;12.27;8.20;;;15.00;29.40;;;;;;5023713;28;20943;-75
2022/05/31 00:55:42;;;;;;;13.33;8.43;;;15.00;29.60;;;;;;5033207;28;20502;-74
2022/05/31 00:58:14;;;;;;;15.80;8.70;;;14.90;30.20;;;;;;5031040;28;20442;-75
2022/05/31 01:00:41;;;;;;;21.53;9.60;;;14.80;30.30;;;;;;5027333;28;20413;-76
2022/05/31 01:03:09;;;;;;;13.83;9.00;;;14.40;29.30;;;;;;5028651;28;20435;-75
2022/05/31 01:05:34;;;;;;;13.63;8.37;;;14.30;31.40;;;;;;5023472;28;20557;-75
2022/05/31 01:08:01;;;;;;;10.93;7.40;;;14.30;29.30;;;;;;5025744;28;20509;-75
2022/05/31 01:10:27;;;;;;;10.57;6.83;;;14.10;30.70;;;;;;5023062;28;20243;-75
2022/05/31 01:12:53;;;;;;;17.13;7.37;;;13.90;30.60;;;;;;5029475;28;20443;-75
2022/05/31 01:15:19;;;;;;;11.43;7.10;;;13.90;29.80;;;;;;5029797;28;20455;-75
2022/05/31 01:17:45;;;;;;;11.33;7.07;;;14.00;30.30;;;;;;5015005;28;20451;-75
2022/05/31 01:20:17;;;;;;;12.43;7.07;;;14.30;31.30;;;;;;5026659;28;20584;-75
2022/05/31 01:22:47;;;;;;;13.80;7.80;;;14.30;32.10;;;;;;5028321;28;20317;-75
2022/05/31 01:25:23;;;;;;;10.10;6.73;;;14.30;31.70;;;;;;5024673;28;20427;-75
2022/05/31 01:28:12;;;;;;;9.80;6.83;;;14.30;32.40;;;;;;5032332;28;20464;-75
2022/05/31 01:30:48;;;;;;;13.83;7.03;;;14.10;30.80;;;;;;5027787;28;20798;-74
2022/05/31 01:33:25;;;;;;;15.93;7.33;;;14.10;30.20;;;;;;5023212;28;20863;-75
2022/05/31 01:35:52;;;;;;;12.97;7.13;;;14.00;33.00;;;;;;5031164;28;20466;-75
2022/05/31 01:38:41;;;;;;;11.70;6.73;;;14.30;32.10;;;;;;5020284;28;20928;-74
2022/05/31 01:41:12;;;;;;;12.90;7.30;;;14.00;31.90;;;;;;5025990;28;20509;-75
2022/05/31 01:43:43;;;;;;;13.13;7.00;;;13.80;32.20;;;;;;5024265;28;20431;-75
2022/05/31 01:46:15;;;;;;;11.70;7.20;;;14.10;31.00;;;;;;5020515;28;20473;-75
2022/05/31 01:48:42;;;;;;;12.00;7.70;;;14.10;32.00;;;;;;5030374;28;20430;-74
2022/05/31 01:51:09;;;;;;;12.83;7.13;;;13.90;31.00;;;;;;5031920;28;20435;-76
2022/05/31 01:53:34;;;;;;;11.70;7.20;;;13.80;32.10;;;;;;5005823;28;20473;-75
2022/05/31 01:56:01;;;;;;;14.93;7.10;;;13.50;31.60;;;;;;5032219;28;20874;-74
2022/05/31 01:58:32;;;;;;;14.10;8.57;;;13.70;32.60;;;;;;5019985;28;20186;-74
2022/05/31 02:00:58;;;;;;;12.87;7.70;;;13.80;31.90;;;;;;5012031;28;20565;-75
2022/05/31 02:03:24;;;;;;;13.70;8.20;;;13.70;30.80;;;;;;5022008;28;20769;-75
2022/05/31 02:05:51;;;;;;;10.13;7.00;;;14.00;32.30;;;;;;5018329;28;20228;-75
2022/05/31 02:08:20;;;;;;;10.00;7.67;;;13.90;31.90;;;;;;5015991;28;20428;-75
2022/05/31 02:10:47;;;;;;;12.87;7.30;;;13.80;32.30;;;;;;5020443;28;20473;-75
2022/05/31 02:13:14;;;;;;;13.93;8.30;;;13.70;32.10;;;;;;5022062;28;20458;-75
2022/05/31 02:15:40;;;;;;;13.73;7.50;;;13.80;32.40;;;;;;5019804;28;20995;-75
2022/05/31 02:18:06;;;;;;;13.03;8.57;;;13.70;32.10;;;;;;5029819;28;20437;-75
2022/05/31 02:20:31;;;;;;;10.60;7.10;;;13.90;32.30;;;;;;5031642;28;20515;-75
2022/05/31 02:22:57;;;;;;;13.57;7.73;;;13.70;33.20;;;;;;5028914;28;20778;-75
2022/05/31 02:25:23;;;;;;;10.83;6.90;;;13.80;33.30;;;;;;5027586;28;20708;-74
2022/05/31 02:27:48;;;;;;;13.67;7.10;;;13.70;33.60;;;;;;5024861;28;20573;-75
2022/05/31 02:30:14;;;;;;;9.90;7.13;;;13.80;32.80;;;;;;5031455;28;20195;-75
2022/05/31 02:32:40;;;;;;;10.90;6.83;;;13.70;33.30;;;;;;5022520;28;20211;-74
2022/05/31 02:35:09;;;;;;;18.33;7.50;;;13.50;32.70;;;;;;5021318;28;20200;-76
2022/05/31 02:37:35;;;;;;;11.17;6.60;;;13.50;33.40;;;;;;5029933;28;20986;-75
2022/05/31 02:40:01;;;;;;;11.60;7.03;;;13.50;33.70;;;;;;5029583;28;20589;-75
2022/05/31 02:42:26;;;;;;;18.07;6.83;;;13.50;33.40;;;;;;5023284;28;20926;-75
2022/05/31 02:44:52;;;;;;;10.90;7.23;;;13.60;33.60;;;;;;5028880;28;20192;-75
2022/05/31 02:47:19;;;;;;;14.03;7.50;;;13.40;33.40;;;;;;5029567;28;20188;-74
2022/05/31 02:49:46;;;;;;;9.80;6.70;;;13.50;34.10;;;;;;5031176;28;20180;-76
2022/05/31 02:52:12;;;;;;;11.60;6.97;;;13.40;33.90;;;;;;5024519;28;20432;-75
2022/05/31 02:54:38;;;;;;;8.83;6.40;;;13.30;34.80;;;;;;5019770;28;20493;-74
2022/05/31 02:57:04;;;;;;;12.00;6.93;;;13.70;34.90;;;;;;5023404;28;20215;-74
2022/05/31 02:59:30;;;;;;;17.73;7.43;;;13.20;34.60;;;;;;5022753;28;20424;-73
2022/05/31 03:01:56;;;;;;;10.67;6.90;;;13.20;35.30;;;;;;5030435;28;20429;-76
2022/05/31 03:04:22;;;;;;;12.97;6.47;;;13.30;35.40;;;;;;5030971;28;20469;-76
2022/05/31 03:06:48;;;;;;;10.53;6.10;;;13.00;34.00;;;;;;5029661;28;20767;-75
2022/05/31 03:09:14;;;;;;;11.03;6.90;;;13.40;34.50;;;;;;5021632;28;20678;-73
2022/05/31 03:11:52;;;;;;;10.67;6.50;;;13.10;35.30;;;;;;5027150;28;20431;-75
2022/05/31 03:14:29;;;;;;;10.33;6.03;;;13.20;34.90;;;;;;5022056;28;20431;-75
2022/05/31 03:17:15;;;;;;;12.47;8.20;;;13.20;35.10;;;;;;5027842;28;20541;-75
2022/05/31 03:19:57;;;;;;;12.50;7.60;;;12.90;33.70;;;;;;5021922;28;21176;-75
2022/05/31 03:22:27;;;;;;;11.63;7.90;;;12.90;34.10;;;;;;5023776;28;20484;-74
2022/05/31 03:24:57;;;;;;;15.03;9.83;;;13.00;34.00;;;;;;5035030;28;20411;-75
2022/05/31 03:27:23;;;;;;;16.80;9.30;;;13.00;35.10;;;;;;5038179;28;20541;-76
2022/05/31 03:29:50;;;;;;;16.10;9.37;;;12.20;35.40;;;;;;5032664;28;20426;-74
2022/05/31 03:32:16;;;;;;;16.33;9.83;;;12.30;36.80;;;;;;5036550;28;20637;-75
2022/05/31 03:34:42;;;;;;;15.33;10.07;;;12.60;36.50;;;;;;5032371;28;20485;-76
2022/05/31 03:37:08;;;;;;;15.40;10.13;;;12.80;35.00;;;;;;5031457;28;20463;-76
2022/05/31 03:39:34;;;;;;;14.97;10.40;;;13.00;36.00;;;;;;5038201;28;20427;-75
2022/05/31 03:41:59;;;;;;;16.30;9.70;;;13.00;35.20;;;;;;5026435;28;20464;-76
2022/05/31 03:44:25;;;;;;;15.20;9.90;;;13.00;35.20;;;;;;5029707;28;20189;-74
2022/05/31 03:46:51;;;;;;;14.90;9.47;;;12.90;34.60;;;;;;5029993;28;20584;-75
2022/05/31 03:49:17;;;;;;;14.00;8.77;;;12.90;35.00;;;;;;5007653;28;20456;-75
2022/05/31 03:51:44;;;;;;;12.07;8.53;;;12.80;35.80;;;;;;5030941;28;20184;-75
2022/05/31 03:54:10;;;;;;;17.20;9.50;;;12.80;35.50;;;;;;5034131;28;20184;-74
2022/05/31 03:56:36;;;;;;;16.93;8.77;;;12.70;34.90;;;;;;5023116;28;20467;-74
2022/05/31 03:59:03;;;;;;;15.47;8.97;;;12.80;35.50;;;;;;5027237;28;20256;-74
2022/05/31 04:01:28;;;;;;;17.00;8.83;;;12.60;34.80;;;;;;5028140;28;20427;-75
2022/05/31 04:03:54;;;;;;;12.00;7.73;;;12.80;35.20;;;;;;5025896;28;20838;-75
2022/05/31 04:06:20;;;;;;;13.77;7.97;;;12.80;35.00;;;;;;5029897;28;20719;-75
2022/05/31 04:08:46;;;;;;;16.47;8.93;;;12.90;35.70;;;;;;5030903;28;20442;-74
2022/05/31 04:11:12;;;;;;;12.60;8.27;;;13.00;35.10;;;;;;5029902;28;20439;-75
2022/05/31 04:13:38;;;;;;;11.37;8.00;;;13.00;36.30;;;;;;5015676;28;20256;-74
2022/05/31 04:16:10;;;;;;;10.47;7.63;;;13.20;35.30;;;;;;5030769;28;20471;-75
2022/05/31 04:18:37;;;;;;;11.80;7.63;;;12.90;33.80;;;;;;5028791;28;20456;-73
2022/05/31 04:21:05;;;;;;;12.77;7.60;;;12.40;35.70;;;;;;5032389;28;20557;-76
2022/05/31 04:26:16;;;;;;;11.53;8.03;;;12.80;35.60;;;;;;5032101;28;20492;-76
2022/05/31 04:28:42;;;;;;;15.37;7.97;;;13.10;35.30;;;;;;5026583;28;20510;-75
2022/05/31 04:31:07;;;;;;;14.87;8.10;;;13.20;35.40;;;;;;5032416;28;20526;-74
2022/05/31 04:33:33;;;;;;;15.77;9.80;;;13.10;33.60;;;;;;5031667;28;21010;-74
2022/05/31 04:36:08;;;;;;;13.37;8.80;;;13.00;35.80;;;;;;5029178;28;20478;-75
2022/05/31 04:38:35;;;;;;;16.53;8.37;;;9.40;32.00;;;;;;5009459;28;21030;-75
2022/05/31 04:41:01;;;;;;;17.53;8.00;;;13.00;35.60;;;;;;5024699;28;20444;-74
2022/05/31 04:43:27;;;;;;;13.43;7.97;;;12.70;34.90;;;;;;5031277;28;20427;-75
2022/05/31 04:45:53;;;;;;;10.97;7.27;;;12.80;35.50;;;;;;5024019;28;20837;-74
2022/05/31 04:48:19;;;;;;;15.57;7.47;;;12.60;34.80;;;;;;5029135;28;20220;-74
2022/05/31 04:50:44;;;;;;;9.80;7.20;;;12.90;35.10;;;;;;5034654;28;20196;-75
2022/05/31 04:53:10;;;;;;;10.53;6.53;;;13.20;33.40;;;;;;5033761;28;20841;-74
2022/05/31 04:55:36;;;;;;;10.93;7.13;;;13.30;32.20;;;;;;5025691;28;20209;-76
2022/05/31 04:58:02;;;;;;;10.63;6.80;;;13.60;33.10;;;;;;5040935;28;20180;-76
2022/05/31 05:00:29;;;;;;;13.87;7.33;;;13.90;31.50;;;;;;5032648;28;20523;-75
2022/05/31 05:02:55;;;;;;;11.67;7.03;;;13.90;31.10;;;;;;5016837;28;20510;-74
2022/05/31 05:05:20;;;;;;;10.80;7.10;;;13.60;30.60;;;;;;5027978;28;20975;-75
2022/05/31 05:07:47;;;;;;;12.70;7.23;;;13.50;31.50;;;;;;5028689;28;20186;-75
2022/05/31 05:10:12;;;;;;;10.40;7.20;;;13.90;31.90;;;;;;5028315;28;20232;-75
2022/05/31 05:12:38;;;;;;;10.97;6.90;;;14.40;30.10;;;;;;5030406;28;20427;-74
2022/05/31 05:15:07;;;;;;;13.23;7.10;;;;;;;;;;5030531;28;20220;-75
2022/05/31 05:17:33;;;;;;;13.00;7.57;;;14.50;29.00;;;;;;5025511;28;20198;-75
2022/05/31 05:19:59;;;;;;;13.97;8.00;;;18.10;33.80;;;;;;5027792;28;20432;-74
2022/05/31 05:22:25;;;;;;;12.97;8.00;;;13.60;31.20;;;;;;5024638;28;20185;-76
2022/05/31 05:24:51;;;;;;;11.47;7.77;;;13.70;32.20;;;;;;5025001;28;20440;-75
2022/05/31 05:27:16;;;;;;;14.17;7.60;;;14.00;31.80;;;;;;5029405;28;20578;-75
2022/05/31 05:32:26;;;;;;;13.53;7.90;;;13.80;30.50;;;;;;5026811;28;20194;-74
2022/05/31 05:34:55;;;;;;;15.03;8.63;;;13.00;33.20;;;;;;5027503;28;20473;-75
2022/05/31 05:37:22;;;;;;;13.60;8.67;;;12.70;33.90;;;;;;5024618;28;20214;-74
2022/05/31 05:39:48;;;;;;;12.07;8.13;;;13.40;34.40;;;;;;5026668;28;20470;-75
2022/05/31 05:42:15;;;;;;;19.83;9.00;;;13.90;32.80;;;;;;5021279;28;20463;-75
2022/05/31 05:44:41;;;;;;;15.60;10.10;;;13.80;30.60;;;;;;5003237;28;20201;-73
2022/05/31 05:47:14;;;;;;;14.97;10.13;;;13.40;32.90;;;;;;5029567;28;20815;-74
2022/05/31 05:49:40;;;;;;;18.90;11.50;;;12.80;34.80;;;;;;5031909;28;20266;-74
2022/05/31 05:52:10;;;;;;;18.83;10.73;;;12.70;34.90;;;;;;5032044;28;20421;-73
2022/05/31 05:54:35;;;;;;;18.80;11.27;;;13.30;33.70;;;;;;5022278;28;20424;-74
2022/05/31 05:57:01;;;;;;;27.80;10.60;;;13.70;33.50;;;;;;5028556;28;20458;-75
2022/05/31 05:59:27;;;;;;;18.90;9.90;;;13.70;34.50;;;;;;5021418;28;20187;-74
2022/05/31 06:02:05;;;;;;;17.93;9.93;;;13.70;33.10;;;;;;5023045;28;20184;-74
2022/05/31 06:04:49;;;;;;;21.90;10.23;;;13.60;33.30;;;;;;5022454;28;20179;-74
2022/05/31 06:07:24;;;;;;;21.07;10.20;;;13.60;34.40;;;;;;5021149;28;20472;-75
2022/05/31 06:10:18;;;;;;;11.83;8.40;;;13.80;33.20;;;;;;5025108;28;20438;-75
2022/05/31 06:12:57;;;;;;;16.87;7.50;;;13.80;33.00;;;;;;5025025;28;20449;-74
2022/05/31 06:15:28;;;;;;;21.03;7.80;;;13.40;34.20;;;;;;5022308;28;20814;-76
2022/05/31 06:17:57;;;;;;;16.20;7.53;;;13.50;34.40;;;;;;5021033;28;20525;-75
2022/05/31 06:20:23;;;;;;;11.30;7.10;;;13.70;33.10;;;;;;5022392;28;20439;-75
2022/05/31 06:22:49;;;;;;;11.23;7.57;;;14.10;33.00;;;;;;5030236;28;20448;-74
2022/05/31 06:25:20;;;;;;;12.23;7.43;;;14.10;31.30;;;;;;5027157;28;20431;-74
2022/05/31 06:27:47;;;;;;;12.70;6.97;;;14.10;32.10;;;;;;5016946;28;20455;-75
2022/05/31 06:30:13;;;;;;;16.83;7.33;;;14.30;31.80;;;;;;5020574;28;20418;-75
2022/05/31 06:32:38;;;;;;;12.23;7.23;;;13.90;32.60;;;;;;5011913;28;20499;-74
2022/05/31 06:35:05;;;;;;;11.00;7.13;;;13.90;32.80;;;;;;5023063;28;20476;-75
2022/05/31 06:37:31;;;;;;;12.83;7.50;;;14.00;33.00;;;;;;5024828;28;20184;-75
2022/05/31 06:39:57;;;;;;;9.33;6.40;;;14.10;32.50;;;;;;5030971;28;20422;-81
2022/05/31 06:42:23;;;;;;;10.20;6.47;;;14.10;32.60;;;;;;5021817;28;20550;-77
2022/05/31 06:44:49;;;;;;;10.57;6.37;;;14.00;32.80;;;;;;5028346;28;20425;-77
2022/05/31 06:47:15;;;;;;;9.27;6.23;;;14.40;34.10;;;;;;5023866;28;20459;-78
2022/05/31 06:49:41;;;;;;;10.80;6.90;;;15.00;29.90;;;;;;5029662;28;20299;-75
2022/05/31 06:57:42;;;;;;;9.60;5.70;;;15.40;30.30;;;;;;5021759;28;20440;-75
2022/05/31 07:00:11;;;;;;;12.10;6.37;;;16.20;29.30;;;;;;5025392;28;20431;-75
2022/05/31 07:02:37;;;;;;;9.90;5.93;;;18.80;32.70;;;;;;5025364;28;20436;-75
2022/05/31 07:05:03;;;;;;;8.53;6.03;;;15.40;30.50;;;;;;5027874;28;20436;-74
2022/05/31 07:07:29;;;;;;;10.90;6.70;;;16.20;29.90;;;;;;5023656;28;20291;-74
2022/05/31 07:09:55;;;;;;;8.90;6.83;;;15.90;29.50;;;;;;5022413;28;20526;-75
2022/05/31 07:12:21;;;;;;;11.37;6.03;;;15.60;30.30;;;;;;5029911;28;20229;-74
2022/05/31 07:14:47;;;;;;;8.40;6.20;;;15.50;30.30;;;;;;5022453;28;20614;-72
2022/05/31 07:17:12;;;;;;;13.57;6.37;;;15.60;30.90;;;;;;5006819;28;20508;-74
2022/05/31 07:19:39;;;;;;;10.50;6.57;;;15.90;30.30;;;;;;5020933;28;20539;-75
2022/05/31 07:22:05;;;;;;;10.47;6.10;;;15.70;30.50;;;;;;5024385;28;20195;-74
2022/05/31 07:24:31;;;;;;;13.57;5.93;;;15.50;30.90;;;;;;5025448;28;20423;-73
2022/05/31 07:26:57;;;;;;;9.67;6.20;;;15.40;31.40;;;;;;5027232;28;20470;-74
2022/05/31 07:29:23;;;;;;;25.03;6.30;;;15.60;30.80;;;;;;5023457;28;20807;-74
2022/05/31 07:31:49;;;;;;;8.23;5.40;;;15.60;30.40;;;;;;5027498;28;20451;-73
2022/05/31 07:34:16;;;;;;;8.80;5.67;;;15.80;30.60;;;;;;5022841;28;20814;-75
2022/05/31 07:36:42;;;;;;;11.20;5.90;;;16.10;30.00;;;;;;5018864;28;20217;-75
2022/05/31 07:39:15;;;;;;;11.97;6.30;;;15.90;29.80;;;;;;5023001;28;20496;-75
2022/05/31 07:41:41;;;;;;;10.37;6.67;;;16.00;30.00;;;;;;5022496;28;20427;-75
2022/05/31 07:44:08;;;;;;;9.83;6.20;;;16.20;29.80;;;;;;5022094;28;20998;-75
2022/05/31 07:46:33;;;;;;;11.90;6.30;;;16.40;29.60;;;;;;5019875;28;20554;-75
2022/05/31 07:49:00;;;;;;;13.57;6.07;;;16.70;29.30;;;;;;5026914;28;20525;-74
2022/05/31 07:51:26;;;;;;;8.50;5.70;;;16.60;29.00;;;;;;5030005;28;20192;-74
2022/05/31 07:53:52;;;;;;;8.20;5.87;;;16.40;29.50;;;;;;5027986;28;20561;-75
2022/05/31 07:56:19;;;;;;;12.93;5.97;;;16.90;29.10;;;;;;5019704;28;20575;-75
2022/05/31 07:58:46;;;;;;;10.87;5.33;;;16.70;28.50;;;;;;5027767;28;20445;-76
2022/05/31 08:01:14;;;;;;;9.60;6.30;;;16.70;28.30;;;;;;5022689;28;20806;-79
2022/05/31 08:03:41;;;;;;;11.87;6.73;;;17.10;27.90;;;;;;5025082;28;20490;-74
2022/05/31 08:06:09;;;;;;;14.43;7.30;;;16.80;28.80;;;;;;5029409;28;20823;-76
2022/05/31 08:08:36;;;;;;;7.90;5.03;;;17.10;29.90;;;;;;5025613;28;20539;-76
2022/05/31 08:11:08;;;;;;;8.23;5.53;;;17.50;27.60;;;;;;5024998;28;20449;-77
2022/05/31 08:13:34;;;;;;;8.80;5.30;;;17.10;28.10;;;;;;5019002;28;20468;-76
2022/05/31 08:16:01;;;;;;;9.47;5.80;;;17.50;28.30;;;;;;5024777;28;20563;-76
2022/05/31 08:18:27;;;;;;;17.93;5.80;;;18.00;27.30;;;;;;5030847;28;20461;-77
2022/05/31 08:21:01;;;;;;;8.90;5.73;;;17.50;27.50;;;;;;5034342;28;20937;-76
2022/05/31 08:23:27;;;;;;;23.37;6.10;;;17.80;28.20;;;;;;5026251;28;20428;-76
2022/05/31 08:25:54;;;;;;;7.87;5.53;;;18.60;26.70;;;;;;5026370;28;20460;-77
2022/05/31 08:28:20;;;;;;;9.57;5.60;;;18.10;26.30;;;;;;5034642;28;20912;-77
2022/05/31 08:30:48;;;;;;;15.17;5.27;;;18.20;26.70;;;;;;5027962;28;20471;-77
2022/05/31 08:33:14;;;;;;;12.03;5.37;;;18.00;26.90;;;;;;5029155;28;20430;-77
2022/05/31 08:35:39;;;;;;;6.30;5.10;;;18.10;27.70;;;;;;5028795;28;20992;-76
2022/05/31 08:38:05;;;;;;;9.47;5.20;;;18.20;26.90;;;;;;5029751;28;20188;-75
2022/05/31 08:40:41;;;;;;;9.20;5.80;;;18.00;27.90;;;;;;5022508;28;20208;-75
2022/05/31 08:43:07;;;;;;;8.00;5.17;;;18.70;27.70;;;;;;5025163;28;20183;-75
2022/05/31 08:45:43;;;;;;;10.20;5.57;;;19.50;25.60;;;;;;5020952;28;20477;-75
2022/05/31 08:48:23;;;;;;;12.03;5.67;;;20.00;25.20;;;;;;5032533;28;20926;-81
2022/05/31 08:56:59;;;;;;;13.07;5.40;;;20.00;25.50;;;;;;5027628;28;20520;-76
2022/05/31 08:59:34;;;;;;;11.33;5.50;;;20.10;25.20;;;;;;5019962;28;20895;-76
2022/05/31 09:02:05;;;;;;;9.17;5.20;;;20.30;24.60;;;;;;5025181;28;20450;-76
2022/05/31 09:04:41;;;;;;;7.40;4.70;;;19.50;25.60;;;;;;5033021;28;20430;-75
2022/05/31 09:07:15;;;;;;;7.53;5.03;;;19.90;25.90;;;;;;5024867;28;20483;-75
2022/05/31 09:09:58;;;;;;;13.20;5.50;;;20.20;25.30;;;;;;5025152;28;20795;-76
2022/05/31 09:12:41;;;;;;;8.23;4.50;;;19.70;25.80;;;;;;5024001;28;20519;-76
2022/05/31 09:15:15;;;;;;;10.40;4.50;;;19.40;26.60;;;;;;5031524;28;21143;-76
2022/05/31 09:18:05;;;;;;;8.13;4.80;;;19.90;26.00;;;;;;5025505;28;20941;-76
2022/05/31 09:20:46;;;;;;;6.30;4.30;;;20.50;25.50;;;;;;5031616;28;20420;-75
2022/05/31 09:23:18;;;;;;;7.10;4.00;;;20.60;25.70;;;;;;5032116;28;20414;-75
2022/05/31 09:25:46;;;;;;;6.70;4.57;;;20.60;25.20;;;;;;5032781;28;20505;-76
2022/05/31 09:28:42;;;;;;;8.50;4.43;;;21.00;25.80;;;;;;5021364;28;20447;-76
2022/05/31 09:31:35;;;;;;;7.57;4.37;;;21.00;23.90;;;;;;5031569;28;20516;-75
2022/05/31 09:34:13;;;;;;;6.60;4.63;;;21.30;24.00;;;;;;5032684;28;20433;-76
2022/05/31 09:37:05;;;;;;;10.83;4.07;;;21.90;23.20;;;;;;5023757;28;20470;-77
2022/05/31 09:39:39;;;;;;;13.30;3.97;;;21.60;22.20;;;;;;5018234;28;20781;-76
2022/05/31 09:42:17;;;;;;;9.97;4.20;;;21.30;25.50;;;;;;5024042;28;20435;-77
2022/05/31 09:44:47;;;;;;;5.60;4.20;;;21.60;23.00;;;;;;5025557;28;20427;-76
2022/05/31 09:47:24;;;;;;;12.43;4.30;;;21.70;23.10;;;;;;5031406;28;20447;-76
2022/05/31 09:49:51;;;;;;;5.60;3.87;;;22.20;21.40;;;;;;5024991;28;20424;-76
2022/05/31 09:52:36;;;;;;;14.70;4.23;;;21.70;22.90;;;;;;5025550;28;20529;-76
2022/05/31 09:58:22;;;;;;;11.07;4.60;;;20.90;23.00;;;;;;5029210;28;20812;-77
2022/05/31 10:01:05;;;;;;;11.30;4.07;;;21.00;23.30;;;;;;5007532;28;20431;-77
2022/05/31 10:03:44;;;;;;;7.70;4.37;;;20.60;23.60;;;;;;5028094;28;20433;-74
2022/05/31 10:06:26;;;;;;;7.47;4.67;;;21.00;23.30;;;;;;5030588;28;20830;-76
2022/05/31 10:08:54;;;;;;;6.63;4.33;;;20.70;23.30;;;;;;5029855;28;20452;-76
2022/05/31 10:11:28;;;;;;;8.33;4.30;;;20.80;23.10;;;;;;5031619;28;20463;-76
2022/05/31 10:14:05;;;;;;;10.30;4.20;;;21.20;22.50;;;;;;5029129;28;20939;-76
2022/05/31 10:16:33;;;;;;;8.20;3.90;;;22.10;21.30;;;;;;5031919;28;20837;-76
2022/05/31 10:19:08;;;;;;;5.53;4.10;;;22.10;22.80;;;;;;5029292;28;20441;-76
2022/05/31 10:21:42;;;;;;;5.80;4.20;;;22.60;21.10;;;;;;5001677;28;20445;-76
2022/05/31 10:24:21;;;;;;;8.93;4.70;;;22.70;19.90;;;;;;5028062;28;20522;-76
2022/05/31 10:27:05;;;;;;;6.47;3.87;;;23.20;21.40;;;;;;5018921;28;20981;-76
2022/05/31 10:29:53;;;;;;;9.43;3.80;;;23.50;18.90;;;;;;5023996;28;20442;-75
2022/05/31 10:32:42;;;;;;;9.07;4.40;;;22.90;20.10;;;;;;5007172;28;20731;-76
2022/05/31 10:35:38;;;;;;;9.20;4.20;;;23.00;20.50;;;;;;5028446;28;20490;-76
2022/05/31 10:38:15;;;;;;;5.47;3.70;;;23.60;19.50;;;;;;5026000;28;20471;-76
2022/05/31 10:40:47;;;;;;;6.70;3.80;;;23.30;19.30;;;;;;5030777;28;20948;-76
2022/05/31 10:43:30;;;;;;;6.03;3.60;;;22.70;17.80;;;;;;5026836;28;20800;-76
2022/05/31 10:45:56;;;;;;;5.87;3.93;;;22.30;19.10;;;;;;5027140;28;20549;-76
2022/05/31 10:48:23;;;;;;;12.40;3.87;;;23.00;19.90;;;;;;5027788;28;21884;-76
2022/05/31 10:51:15;;;;;;;5.57;3.97;;;22.40;19.00;;;;;;5028659;28;20449;-77
2022/05/31 10:54:09;;;;;;;9.93;4.40;;;22.70;19.60;;;;;;5019881;28;20442;-75
2022/05/31 10:56:55;;;;;;;6.23;3.70;;;23.40;18.30;;;;;;5028484;28;20485;-77
2022/05/31 10:59:30;;;;;;;4.87;3.60;;;22.80;16.90;;;;;;5026628;28;20431;-77
2022/05/31 11:02:32;;;;;;;7.30;3.80;;;23.40;18.80;;;;;;5026708;28;20446;-77
2022/05/31 11:05:19;;;;;;;8.03;3.57;;;23.60;16.20;;;;;;5027408;28;20470;-76
2022/05/31 11:11:39;;;;;;;9.03;4.23;;;23.10;15.10;;;;;;5025907;28;20791;-77
2022/05/31 11:13:59;;;;;;;12.10;4.10;;;23.50;17.80;;;;;;5015335;28;20439;-77
2022/05/31 11:16:39;;;;;;;10.97;4.07;;;25.10;18.60;;;;;;5010800;28;20470;-77
2022/05/31 11:19:17;;;;;;;11.50;3.63;;;24.90;16.40;;;;;;5033905;28;20529;-78
2022/05/31 11:22:04;;;;;;;7.57;4.10;;;24.60;15.60;;;;;;5028421;28;20427;-78
2022/05/31 11:24:42;;;;;;;5.37;3.37;;;24.30;15.30;;;;;;5032936;28;20418;-79
2022/05/31 11:27:29;;;;;;;5.37;3.33;;;24.70;16.10;;;;;;5032470;28;20470;-79
2022/05/31 11:30:23;;;;;;;13.07;4.33;;;25.80;14.50;;;;;;5018127;28;20495;-79
2022/05/31 11:32:55;;;;;;;5.27;3.30;;;28.00;12.60;;;;;;5030911;28;20926;-77
2022/05/31 11:35:51;;;;;;;5.47;3.20;;;28.00;11.30;;;;;;5027237;28;20467;-77
2022/05/31 11:38:44;;;;;;;8.27;3.47;;;27.60;11.20;;;;;;5025463;28;21050;-77
2022/05/31 11:41:37;;;;;;;7.53;3.20;;;25.90;13.50;;;;;;5029368;28;20925;-77
2022/05/31 11:44:35;;;;;;;4.50;3.00;;;27.60;13.00;;;;;;5020551;28;20430;-81
2022/05/31 11:47:04;;;;;;;7.07;3.20;;;29.00;12.90;;;;;;5021583;28;20463;-78
2022/05/31 11:49:38;;;;;;;5.13;3.00;;;28.70;9.60;;;;;;5034089;28;20431;-77
2022/05/31 11:52:41;;;;;;;5.27;3.20;;;27.60;10.70;;;;;;5034285;28;20497;-78
2022/05/31 11:55:28;;;;;;;6.70;2.80;;;26.60;12.40;;;;;;5024777;28;20500;-78
2022/05/31 11:58:18;;;;;;;6.80;3.20;;;25.30;12.00;;;;;;5032862;28;20453;-77
2022/05/31 12:01:22;;;;;;;8.13;3.33;;;24.30;13.60;;;;;;5024482;28;20519;-78
2022/05/31 12:04:09;;;;;;;4.30;2.80;;;24.70;14.20;;;;;;4914919;29;20519;-78
2022/05/31 12:06:42;;;;;;;9.37;3.60;;;25.30;12.70;;;;;;5023649;28;20969;-78
2022/05/31 12:09:29;;;;;;;6.27;2.83;;;24.10;13.50;;;;;;5030485;28;20422;-77
2022/05/31 12:12:01;;;;;;;4.70;3.03;;;24.10;14.10;;;;;;5025308;28;20493;-78
2022/05/31 12:14:28;;;;;;;7.43;3.50;;;25.20;12.60;;;;;;5034189;28;20426;-78
2022/05/31 12:16:55;;;;;;;8.80;3.40;;;25.70;12.90;;;;;;5034406;28;20497;-77
2022/05/31 12:19:23;;;;;;;10.57;3.13;;;26.00;12.20;;;;;;5027955;28;20428;-76
2022/05/31 12:22:06;;;;;;;12.80;3.73;;;25.60;12.10;;;;;;5013485;28;20419;-77
2022/05/31 12:24:39;;;;;;;12.83;3.40;;;25.70;13.30;;;;;;5027829;28;20424;-77
2022/05/31 12:27:31;;;;;;;4.67;2.93;;;26.10;12.10;;;;;;5032826;28;20545;-78
2022/05/31 12:30:12;;;;;;;9.63;3.07;;;25.10;13.90;;;;;;5032954;28;21020;-78
2022/05/31 12:32:39;;;;;;;6.43;3.03;;;25.10;12.60;;;;;;5022351;28;20513;-78
2022/05/31 12:35:07;;;;;;;9.33;3.20;;;25.80;12.10;;;;;;5032248;28;20521;-77
2022/05/31 12:38:03;;;;;;;10.70;3.40;;;25.90;11.20;;;;;;5033484;28;20474;-78
2022/05/31 12:40:34;;;;;;;6.00;2.97;;;24.60;12.90;;;;;;5034696;28;20465;-76
2022/05/31 12:43:13;;;;;;;7.90;3.20;;;24.40;13.40;;;;;;5034703;28;20882;-77
2022/05/31 12:45:40;;;;;;;7.83;3.33;;;24.30;13.20;;;;;;5028866;28;20447;-75
2022/05/31 12:48:17;;;;;;;6.37;3.20;;;24.00;15.10;;;;;;5022266;28;20432;-77
2022/05/31 12:50:56;;;;;;;4.93;3.00;;;25.20;13.60;;;;;;5024185;28;20458;-77
2022/05/31 12:53:23;;;;;;;13.43;3.00;;;25.30;13.00;;;;;;5033087;28;20763;-77
2022/05/31 12:55:58;;;;;;;6.13;3.13;;;25.10;12.80;;;;;;5027747;28;20833;-76
2022/05/31 12:58:31;;;;;;;6.67;3.30;;;24.20;12.30;;;;;;5025116;28;20517;-77
2022/05/31 13:01:13;;;;;;;8.23;2.70;;;24.10;12.80;;;;;;5010027;28;20829;-75
2022/05/31 13:03:53;;;;;;;5.53;3.20;;;24.10;13.50;;;;;;5025480;28;20423;-76
2022/05/31 13:06:37;;;;;;;4.43;3.53;;;24.20;13.60;;;;;;5025139;28;20455;-77
2022/05/31 13:09:02;;;;;;;10.57;3.40;;;24.10;13.90;;;;;;5024058;28;20455;-77
2022/05/31 13:20:11;;;;;;;6.63;3.77;;;23.80;14.10;;;;;;5019823;28;20465;-77
2022/05/31 13:22:41;;;;;;;5.17;3.10;;;23.50;14.70;;;;;;5023888;28;20545;-76
2022/05/31 13:25:28;;;;;;;8.27;3.20;;;24.10;14.10;;;;;;5026730;28;20515;-77
2022/05/31 13:27:59;;;;;;;11.90;3.60;;;24.10;13.60;;;;;;4991581;28;20438;-77
2022/05/31 13:30:30;;;;;;;5.80;3.30;;;23.70;13.10;;;;;;5024257;28;20791;-76
2022/05/31 13:32:57;;;;;;;7.37;3.30;;;23.90;13.70;;;;;;5027889;28;20455;-76
2022/05/31 13:35:26;;;;;;;8.10;3.30;;;23.90;13.60;;;;;;5021504;28;20459;-76